Port Stanley — V7EE9 — position and weather

sailwx.info

Track history (hours):
 
Tides and Currents Weather Stations Pressure Air Temp Water Temp Dewpoint Dewpoint Depression Visibility Wind Speed Wind Dir Waves Ship Positions

Port Stanley

Last reported at 2016-Aug-25 02:11 UTC. Time now 2016-Aug-28 20:42 UTC.
Position N 01°16' E 104°14'.

Length 183 m; draft 11.4 m.

MMSI: 538090299.

Date/timePositionNaut miles runAvg speedWind from/ knotsBaromVisibWave heightAir tempDewpointWater temp
2016-Aug-25 02:11N 01°16' E 104°14'812.3
2016-Aug-25 01:32N 01°15' E 104°06'1212.1
2016-Aug-25 00:34N 01°12' E 103°54'22 3.4
2016-Aug-24 18:13N 01°14' E 103°33'0 0.0
2016-Aug-23 12:23N 01°14' E 103°33'10 0.8
2016-Aug-22 23:31N 01°10' E 103°42'9 9.7
2016-Aug-22 22:32N 01°12' E 103°51'5 4.6
2016-Aug-22 21:33N 01°15' E 103°54'0 0.1
2016-Aug-22 20:33N 01°15' E 103°54'0 0.0
2016-Aug-22 19:33N 01°15' E 103°54'0 0.0
2016-Aug-22 18:33N 01°15' E 103°54'0 0.1
2016-Aug-22 17:32N 01°15' E 103°54'0 0.1
2016-Aug-22 16:33N 01°15' E 103°54'0 0.0
2016-Aug-22 15:33N 01°15' E 103°54'0 0.0
2016-Aug-22 14:33N 01°15' E 103°54'0 0.1
2016-Aug-22 13:33N 01°15' E 103°54'0 0.1
2016-Aug-22 12:31N 01°15' E 103°54'0 0.0
2016-Aug-22 11:33N 01°15' E 103°54'0 0.0
2016-Aug-22 10:33N 01°15' E 103°54'6 5.8
2016-Aug-22 09:33N 01°16' E 103°60'  
Track history (hours):
 
Tides and Currents Weather Stations Pressure Air Temp Water Temp Dewpoint Dewpoint Depression Visibility Wind Speed Wind Dir Waves Ship Positions

Port Stanley

Last reported at 2016-Aug-25 02:11 UTC. Time now 2016-Aug-28 20:42 UTC.
Position N 01°16' E 104°14'.

Length 183 m; draft 11.4 m.

MMSI: 538090299.

Date/timePositionNaut miles runAvg speedWind from/ knotsBaromVisibWave heightAir tempDewpointWater temp
2016-Aug-25 02:11N 01°16' E 104°14'812.3
2016-Aug-25 01:32N 01°15' E 104°06'1212.1
2016-Aug-25 00:34N 01°12' E 103°54'22 3.4
2016-Aug-24 18:13N 01°14' E 103°33'0 0.0
2016-Aug-23 12:23N 01°14' E 103°33'10 0.8
2016-Aug-22 23:31N 01°10' E 103°42'9 9.7
2016-Aug-22 22:32N 01°12' E 103°51'5 4.6
2016-Aug-22 21:33N 01°15' E 103°54'0 0.1
2016-Aug-22 20:33N 01°15' E 103°54'0 0.0
2016-Aug-22 19:33N 01°15' E 103°54'0 0.0
2016-Aug-22 18:33N 01°15' E 103°54'0 0.1
2016-Aug-22 17:32N 01°15' E 103°54'0 0.1
2016-Aug-22 16:33N 01°15' E 103°54'0 0.0
2016-Aug-22 15:33N 01°15' E 103°54'0 0.0
2016-Aug-22 14:33N 01°15' E 103°54'0 0.1
2016-Aug-22 13:33N 01°15' E 103°54'0 0.1
2016-Aug-22 12:31N 01°15' E 103°54'0 0.0
2016-Aug-22 11:33N 01°15' E 103°54'0 0.0
2016-Aug-22 10:33N 01°15' E 103°54'6 5.8
2016-Aug-22 09:33N 01°16' E 103°60'  

Dump ship's entire track history